createdAt,value
2018-09-01T00:01:44.906Z,56.40
2018-09-01T00:04:15.294Z,56.60
2018-09-01T00:06:46.325Z,56.30
2018-09-01T00:09:18.013Z,56.30
2018-09-01T00:11:49.056Z,56.60
2018-09-01T00:14:20.356Z,56.60
2018-09-01T00:16:51.042Z,56.40
2018-09-01T00:19:21.140Z,56.30
2018-09-01T00:21:53.648Z,56.30
2018-09-01T00:24:25.005Z,56.30
2018-09-01T00:26:56.139Z,56.90
2018-09-01T00:29:26.408Z,56.80
2018-09-01T00:31:58.902Z,56.80
2018-09-01T00:34:30.322Z,56.80
2018-09-01T00:37:01.067Z,56.60
2018-09-01T00:39:31.164Z,56.90
2018-09-01T00:42:01.657Z,56.90
2018-09-01T00:44:32.819Z,56.80
2018-09-01T00:47:03.240Z,56.70
2018-09-01T00:49:33.524Z,57.00
2018-09-01T00:52:06.253Z,56.80
2018-09-01T00:54:37.327Z,57.40
2018-09-01T00:57:09.811Z,56.70
2018-09-01T00:59:41.104Z,57.00
2018-09-01T01:02:11.213Z,57.30
2018-09-01T01:04:41.812Z,57.40
2018-09-01T01:07:13.875Z,57.50
2018-09-01T01:09:45.235Z,56.80
2018-09-01T01:12:15.200Z,56.90
2018-09-01T01:14:45.331Z,56.90
2018-09-01T01:17:15.535Z,56.90
2018-09-01T01:19:46.542Z,57.00
2018-09-01T01:22:17.063Z,57.10
2018-09-01T01:24:48.219Z,57.20
2018-09-01T01:27:19.434Z,57.10
2018-09-01T01:29:50.607Z,57.00
2018-09-01T01:32:22.300Z,57.00
2018-09-01T01:34:52.456Z,57.00
2018-09-01T01:37:32.981Z,57.00
2018-09-01T01:40:07.326Z,57.60
2018-09-01T01:42:39.030Z,57.00
2018-09-01T01:45:11.789Z,56.40
2018-09-01T01:47:47.351Z,57.00
2018-09-01T01:50:21.163Z,57.00
2018-09-01T01:52:51.427Z,57.00
2018-09-01T01:55:22.656Z,57.20
2018-09-01T01:57:53.269Z,57.30
2018-09-01T02:00:24.030Z,57.20
2018-09-01T02:02:56.688Z,57.20
2018-09-01T02:05:31.403Z,57.10
2018-09-01T02:08:03.864Z,57.30
2018-09-01T02:10:36.631Z,57.20
2018-09-01T02:13:07.574Z,57.20
2018-09-01T02:15:39.835Z,57.30
2018-09-01T02:18:13.191Z,57.20
2018-09-01T02:20:44.298Z,57.20
2018-09-01T02:23:15.357Z,57.50
2018-09-01T02:25:45.172Z,57.40
2018-09-01T02:28:15.242Z,57.70
2018-09-01T02:30:46.291Z,57.50
2018-09-01T02:33:16.230Z,57.60
2018-09-01T02:35:46.333Z,57.40
2018-09-01T02:38:17.094Z,57.50
2018-09-01T02:40:47.633Z,57.50
2018-09-01T02:43:18.156Z,57.30
2018-09-01T02:45:48.045Z,57.30
2018-09-01T02:48:24.024Z,57.40
2018-09-01T02:50:54.447Z,57.40
2018-09-01T02:53:26.186Z,57.50
2018-09-01T02:55:56.127Z,57.60
2018-09-01T02:58:26.471Z,57.70
2018-09-01T03:01:02.330Z,57.70
2018-09-01T03:03:32.150Z,57.50
2018-09-01T03:06:04.495Z,57.60
2018-09-01T03:08:35.300Z,57.60
2018-09-01T03:11:06.072Z,57.70
2018-09-01T03:13:37.663Z,58.00
2018-09-01T03:16:15.224Z,58.00
2018-09-01T03:18:47.539Z,58.30
2018-09-01T03:21:18.028Z,58.10
2018-09-01T03:23:51.229Z,58.30
2018-09-01T03:26:22.389Z,58.00
2018-09-01T03:28:52.230Z,57.90
2018-09-01T03:31:23.864Z,58.10
2018-09-01T03:33:55.083Z,58.50
2018-09-01T03:36:25.375Z,58.80
2018-09-01T03:38:57.466Z,58.90
2018-09-01T03:41:27.466Z,58.60
2018-09-01T03:43:58.059Z,56.80
2018-09-01T03:46:28.364Z,58.30
2018-09-01T03:49:00.202Z,58.40
2018-09-01T03:51:30.971Z,58.20
2018-09-01T03:54:01.585Z,57.90
2018-09-01T03:56:35.248Z,57.00
2018-09-01T03:59:07.059Z,57.70
2018-09-01T04:01:38.081Z,58.20
2018-09-01T04:04:08.126Z,58.40
2018-09-01T04:06:38.047Z,58.50
2018-09-01T04:09:08.795Z,58.50
2018-09-01T04:11:38.676Z,58.60
2018-09-01T04:14:08.902Z,58.60
2018-09-01T04:16:38.774Z,58.50
2018-09-01T04:19:17.020Z,58.50
2018-09-01T04:21:48.888Z,58.60
2018-09-01T04:24:18.854Z,58.40
2018-09-01T04:26:48.947Z,58.40
2018-09-01T04:29:19.490Z,60.30
2018-09-01T04:31:49.248Z,58.70
2018-09-01T04:34:19.141Z,58.70
2018-09-01T04:36:50.427Z,58.80
2018-09-01T04:39:20.456Z,58.80
2018-09-01T04:41:50.364Z,58.90
2018-09-01T04:44:20.623Z,58.80
2018-09-01T04:46:50.598Z,58.60
2018-09-01T04:49:20.498Z,58.60
2018-09-01T04:51:50.624Z,58.60
2018-09-01T04:54:20.828Z,58.40
2018-09-01T04:56:51.362Z,58.20
2018-09-01T04:59:21.794Z,58.10
2018-09-01T05:01:51.505Z,57.00
2018-09-01T05:04:21.979Z,58.90
2018-09-01T05:06:52.146Z,58.80
2018-09-01T05:09:21.977Z,58.70
2018-09-01T05:11:52.877Z,57.40
2018-09-01T05:14:22.737Z,58.10
2018-09-01T05:16:52.624Z,58.00
2018-09-01T05:19:22.437Z,58.10
2018-09-01T05:21:52.332Z,58.20
2018-09-01T05:24:22.078Z,58.00
2018-09-01T05:26:51.852Z,58.00
2018-09-01T05:29:21.703Z,57.80
2018-09-01T05:31:51.493Z,57.60
2018-09-01T05:34:21.230Z,58.30
2018-09-01T05:36:51.093Z,57.80
2018-09-01T05:39:20.802Z,57.60
2018-09-01T05:41:50.543Z,58.30
2018-09-01T05:44:20.566Z,58.70
2018-09-01T05:46:50.691Z,58.20
2018-09-01T05:49:20.517Z,58.70
2018-09-01T05:51:50.553Z,58.60
2018-09-01T05:54:20.432Z,58.00
2018-09-01T05:56:50.242Z,57.90
2018-09-01T05:59:20.150Z,58.10
2018-09-01T06:01:50.434Z,56.90
2018-09-01T06:04:20.337Z,58.00
2018-09-01T06:06:50.202Z,57.60
2018-09-01T06:09:22.088Z,57.10
2018-09-01T06:11:52.498Z,57.60
2018-09-01T06:14:22.518Z,58.10
2018-09-01T06:16:52.884Z,58.60
2018-09-01T06:19:22.934Z,58.70
2018-09-01T06:21:52.769Z,59.00
2018-09-01T06:24:22.721Z,58.30
2018-09-01T06:26:52.720Z,57.60
2018-09-01T06:29:23.796Z,57.90
2018-09-01T06:31:59.062Z,57.80
2018-09-01T06:34:29.365Z,57.80
2018-09-01T06:36:59.375Z,58.10
2018-09-01T06:39:29.092Z,58.00
2018-09-01T06:41:58.792Z,58.10
2018-09-01T06:44:28.649Z,58.50
2018-09-01T06:46:58.708Z,59.00
2018-09-01T06:49:28.815Z,60.10
2018-09-01T06:51:59.171Z,60.80
2018-09-01T06:54:29.189Z,60.80
2018-09-01T06:56:58.989Z,60.30
2018-09-01T06:59:29.240Z,61.70
2018-09-01T07:01:59.181Z,62.20
2018-09-01T07:04:30.438Z,63.30
2018-09-01T07:07:01.719Z,64.50
2018-09-01T07:09:32.509Z,65.20
2018-09-01T07:12:04.187Z,65.20
2018-09-01T07:14:34.235Z,66.30
2018-09-01T07:17:05.589Z,64.10
2018-09-01T07:19:35.676Z,65.30
2018-09-01T07:22:06.205Z,65.90
2018-09-01T07:24:36.276Z,66.70
2018-09-01T07:27:07.440Z,67.10
2018-09-01T07:29:37.855Z,65.30
2018-09-01T07:32:08.271Z,65.90
2018-09-01T07:34:39.806Z,66.70
2018-09-01T07:37:10.323Z,69.90
2018-09-01T07:39:41.294Z,71.60
2018-09-01T07:42:12.356Z,71.20
2018-09-01T07:44:43.482Z,70.90
2018-09-01T07:47:17.491Z,69.30
2018-09-01T07:49:51.040Z,69.00
2018-09-01T07:52:22.520Z,68.80
2018-09-01T07:54:52.616Z,66.70
2018-09-01T07:57:24.038Z,68.50
2018-09-01T07:59:54.529Z,69.40
2018-09-01T08:02:24.795Z,69.20
2018-09-01T08:04:55.502Z,69.10
2018-09-01T08:07:26.106Z,68.90
2018-09-01T08:09:56.268Z,67.60
2018-09-01T08:12:27.571Z,67.10
2018-09-01T08:14:57.559Z,65.70
2018-09-01T08:17:28.361Z,67.10
2018-09-01T08:19:59.273Z,67.90
2018-09-01T08:22:29.208Z,66.60
2018-09-01T08:24:59.564Z,65.20
2018-09-01T08:27:30.359Z,63.40
2018-09-01T08:30:00.552Z,62.80
2018-09-01T08:32:31.471Z,62.20
2018-09-01T08:35:01.806Z,62.50
2018-09-01T08:37:32.433Z,61.90
2018-09-01T08:40:07.601Z,61.90
2018-09-01T08:42:37.648Z,61.40
2018-09-01T08:50:39.999Z,62.30
2018-09-01T08:53:10.465Z,63.40
2018-09-01T08:55:41.049Z,62.50
2018-09-01T08:58:11.458Z,62.30
2018-09-01T09:00:42.802Z,62.30
2018-09-01T09:03:13.480Z,63.00
2018-09-01T09:05:44.886Z,63.20
2018-09-01T09:08:15.797Z,62.20
2018-09-01T09:10:46.954Z,61.10
2018-09-01T09:13:18.462Z,60.20
2018-09-01T09:15:48.966Z,60.20
2018-09-01T09:18:20.193Z,59.80
2018-09-01T09:20:51.704Z,61.40
2018-09-01T09:23:24.538Z,60.60
2018-09-01T09:26:00.197Z,60.20
2018-09-01T09:28:31.569Z,59.40
2018-09-01T09:31:04.958Z,58.00
2018-09-01T09:33:35.517Z,59.70
2018-09-01T09:36:07.797Z,59.10
2018-09-01T09:38:41.360Z,58.40
2018-09-01T09:41:15.446Z,57.00
2018-09-01T09:43:53.353Z,57.00
2018-09-01T09:46:24.442Z,56.50
2018-09-01T09:48:54.814Z,56.40
2018-09-01T09:51:25.537Z,56.20
2018-09-01T09:54:00.228Z,56.30
2018-09-01T09:56:34.213Z,53.20
2018-09-01T09:59:07.563Z,55.00
2018-09-01T10:01:42.724Z,55.30
2018-09-01T10:04:15.259Z,54.50
2018-09-01T10:06:46.918Z,53.90
2018-09-01T10:09:21.793Z,52.80
2018-09-01T10:11:55.423Z,52.90
2018-09-01T10:14:33.185Z,52.20
2018-09-01T10:17:05.273Z,50.40
2018-09-01T10:19:37.720Z,50.20
2018-09-01T10:22:08.153Z,50.40
2018-09-01T10:24:44.608Z,49.60
2018-09-01T10:27:19.273Z,47.60
2018-09-01T10:29:52.205Z,46.80
2018-09-01T10:32:22.988Z,47.50
2018-09-01T10:34:53.618Z,48.60
2018-09-01T10:37:27.450Z,48.80
2018-09-01T10:40:01.042Z,48.20
2018-09-01T10:42:32.399Z,49.90
2018-09-01T10:45:06.647Z,49.60
2018-09-01T10:47:38.060Z,49.30
2018-09-01T10:50:11.235Z,46.90
2018-09-01T10:52:42.109Z,46.00
2018-09-01T10:55:12.508Z,46.00
2018-09-01T10:57:43.814Z,43.40
2018-09-01T11:00:16.653Z,43.20
2018-09-01T11:02:52.487Z,44.30
2018-09-01T11:05:23.361Z,43.80
2018-09-01T11:07:55.427Z,43.30
2018-09-01T11:10:26.259Z,43.20
2018-09-01T11:12:56.502Z,42.90
2018-09-01T11:15:28.010Z,41.60
2018-09-01T11:17:59.368Z,42.00
2018-09-01T11:20:30.653Z,42.30
2018-09-01T11:23:02.736Z,42.60
2018-09-01T11:25:34.731Z,42.40
2018-09-01T11:28:06.904Z,41.70
2018-09-01T11:30:37.099Z,41.90
2018-09-01T11:33:08.668Z,42.80
2018-09-01T11:35:38.806Z,43.20
2018-09-01T11:38:09.495Z,43.00
2018-09-01T11:40:43.428Z,41.40
2018-09-01T11:43:13.881Z,43.10
2018-09-01T11:45:45.418Z,41.40
2018-09-01T11:48:15.252Z,41.70
2018-09-01T11:50:46.409Z,41.70
2018-09-01T11:53:17.084Z,41.50
2018-09-01T11:55:47.722Z,40.60
2018-09-01T11:58:19.023Z,39.90
2018-09-01T12:00:52.200Z,39.40
2018-09-01T12:03:23.694Z,39.40
2018-09-01T12:05:54.242Z,39.10
2018-09-01T12:08:24.029Z,38.20
2018-09-01T12:10:54.212Z,39.40
2018-09-01T12:13:24.358Z,40.20
2018-09-01T12:15:54.350Z,39.10
2018-09-01T12:18:25.989Z,38.10
2018-09-01T12:20:57.237Z,37.50
2018-09-01T12:23:30.662Z,37.90
2018-09-01T12:26:05.189Z,39.70
2018-09-01T12:28:35.927Z,39.70
2018-09-01T12:31:08.294Z,41.20
2018-09-01T12:33:39.123Z,41.60
2018-09-01T12:36:09.893Z,41.80
2018-09-01T12:38:40.578Z,41.60
2018-09-01T12:41:10.934Z,40.90
2018-09-01T12:43:41.535Z,39.40
2018-09-01T12:46:12.878Z,39.00
2018-09-01T12:48:44.748Z,39.40
2018-09-01T12:51:14.990Z,38.90
2018-09-01T12:53:46.778Z,38.20
2018-09-01T12:56:17.116Z,38.30
2018-09-01T12:58:48.213Z,38.80
2018-09-01T13:01:18.724Z,41.30
2018-09-01T13:03:49.859Z,41.20
2018-09-01T13:06:23.638Z,42.20
2018-09-01T13:08:54.176Z,41.80
2018-09-01T13:11:31.597Z,41.70
2018-09-01T13:14:02.392Z,42.10
2018-09-01T13:16:35.257Z,41.50
2018-09-01T13:19:07.102Z,42.20
2018-09-01T13:21:38.463Z,41.40
2018-09-01T13:24:09.636Z,41.40
2018-09-01T13:26:40.785Z,40.50
2018-09-01T13:29:10.862Z,39.70
2018-09-01T13:31:47.705Z,39.30
2018-09-01T13:34:18.096Z,39.10
2018-09-01T13:36:52.829Z,38.50
2018-09-01T13:39:23.193Z,40.00
2018-09-01T13:41:53.981Z,39.80
2018-09-01T13:44:24.409Z,39.40
2018-09-01T13:47:00.399Z,39.30
2018-09-01T13:49:32.944Z,39.60
2018-09-01T13:52:07.127Z,39.50
2018-09-01T13:54:39.381Z,39.20
2018-09-01T13:57:10.737Z,39.20
2018-09-01T13:59:41.111Z,38.50
2018-09-01T14:02:14.411Z,37.80
2018-09-01T14:04:47.824Z,36.70
2018-09-01T14:07:22.473Z,36.80
2018-09-01T14:09:53.816Z,37.20
2018-09-01T14:12:25.697Z,38.10
2018-09-01T14:14:57.555Z,38.60
2018-09-01T14:17:29.610Z,38.00
2018-09-01T14:20:00.884Z,38.40
2018-09-01T14:22:33.195Z,37.80
2018-09-01T14:25:08.740Z,38.90
2018-09-01T14:27:39.622Z,39.00
2018-09-01T14:30:11.093Z,38.70
2018-09-01T14:32:41.503Z,38.50
2018-09-01T14:35:15.196Z,36.70
2018-09-01T14:37:46.580Z,37.80
2018-09-01T14:40:17.521Z,38.40
2018-09-01T14:42:48.868Z,38.20
2018-09-01T14:45:20.327Z,38.40
2018-09-01T14:47:56.088Z,36.90
2018-09-01T14:50:30.873Z,37.50
2018-09-01T14:53:04.243Z,37.30
2018-09-01T14:55:35.354Z,37.90
2018-09-01T14:58:12.922Z,38.10
2018-09-01T15:00:44.797Z,38.10
2018-09-01T15:03:15.555Z,39.10
2018-09-01T15:05:47.114Z,38.00
2018-09-01T15:08:19.328Z,37.70
2018-09-01T15:10:51.000Z,37.00
2018-09-01T15:13:23.726Z,36.70
2018-09-01T15:15:53.847Z,36.50
2018-09-01T15:18:27.255Z,36.20
2018-09-01T15:20:58.595Z,36.40
2018-09-01T15:23:31.615Z,36.90
2018-09-01T15:26:02.100Z,37.30
2018-09-01T15:28:32.427Z,37.00
2018-09-01T15:31:02.924Z,37.70
2018-09-01T15:33:34.015Z,37.90
2018-09-01T15:36:05.868Z,37.60
2018-09-01T15:38:38.700Z,37.80
2018-09-01T15:41:10.493Z,37.70
2018-09-01T15:43:42.214Z,37.80
2018-09-01T15:46:12.566Z,38.00
2018-09-01T15:48:43.417Z,38.60
2018-09-01T15:51:13.632Z,38.20
2018-09-01T15:53:44.877Z,37.70
2018-09-01T15:56:15.226Z,37.50
2018-09-01T15:58:47.293Z,36.60
2018-09-01T16:01:18.700Z,37.30
2018-09-01T16:03:49.846Z,37.30
2018-09-01T16:06:21.278Z,37.40
2018-09-01T16:08:51.807Z,37.60
2018-09-01T16:11:23.112Z,37.40
2018-09-01T16:13:54.328Z,37.30
2018-09-01T16:16:25.267Z,37.00
2018-09-01T16:19:00.663Z,37.00
2018-09-01T16:21:32.114Z,37.70
2018-09-01T16:24:02.448Z,38.90
2018-09-01T16:26:35.183Z,39.60
2018-09-01T16:29:07.205Z,39.80
2018-09-01T16:31:39.449Z,39.40
2018-09-01T16:34:10.720Z,39.40
2018-09-01T16:36:42.187Z,39.50
2018-09-01T16:39:13.131Z,40.00
2018-09-01T16:41:48.483Z,40.20
2018-09-01T16:44:19.774Z,40.30
2018-09-01T16:46:54.864Z,40.50
2018-09-01T16:49:25.423Z,40.60
2018-09-01T16:51:56.332Z,40.60
2018-09-01T16:54:26.992Z,40.20
2018-09-01T16:56:59.648Z,39.90
2018-09-01T16:59:32.289Z,39.40
2018-09-01T17:02:03.357Z,39.00
2018-09-01T17:04:35.886Z,39.30
2018-09-01T17:07:14.809Z,39.60
2018-09-01T17:09:47.876Z,39.50
2018-09-01T17:12:18.685Z,39.10
2018-09-01T17:14:50.912Z,39.50
2018-09-01T17:17:21.340Z,40.00
2018-09-01T17:19:55.095Z,40.00
2018-09-01T17:22:26.234Z,40.20
2018-09-01T17:24:57.442Z,40.40
2018-09-01T17:27:29.790Z,40.60
2018-09-01T17:30:00.407Z,39.80
2018-09-01T17:32:37.668Z,41.40
2018-09-01T17:35:09.244Z,42.20
2018-09-01T17:37:39.821Z,41.00
2018-09-01T17:40:12.084Z,41.40
2018-09-01T17:42:56.554Z,41.30
2018-09-01T17:45:29.310Z,41.20
2018-09-01T17:48:04.978Z,41.10
2018-09-01T17:50:40.488Z,41.40
2018-09-01T17:53:11.685Z,41.60
2018-09-01T17:55:44.579Z,41.80
2018-09-01T17:58:15.335Z,41.90
2018-09-01T18:00:49.749Z,42.20
2018-09-01T18:03:21.479Z,42.00
2018-09-01T18:05:55.751Z,42.20
2018-09-01T18:08:30.518Z,42.50
2018-09-01T18:11:07.400Z,42.60
2018-09-01T18:13:41.616Z,42.50
2018-09-01T18:16:17.688Z,42.60
2018-09-01T18:18:49.722Z,43.00
2018-09-01T18:21:20.367Z,42.90
2018-09-01T18:23:55.945Z,43.20
2018-09-01T18:26:27.389Z,43.40
2018-09-01T18:28:58.555Z,43.40
2018-09-01T18:31:38.148Z,43.60
2018-09-01T18:34:11.069Z,43.60
2018-09-01T18:36:42.856Z,43.80
2018-09-01T18:39:16.135Z,44.10
2018-09-01T18:41:48.896Z,44.20
2018-09-01T18:44:23.628Z,44.30
2018-09-01T18:49:35.897Z,44.70
2018-09-01T18:52:07.784Z,44.80
2018-09-01T18:54:40.778Z,44.70
2018-09-01T18:57:15.831Z,44.90
2018-09-01T18:59:47.085Z,45.30
2018-09-01T19:02:22.775Z,46.20
2018-09-01T19:04:55.293Z,45.40
2018-09-01T19:07:29.753Z,45.50
2018-09-01T19:10:04.433Z,45.60
2018-09-01T19:12:39.215Z,46.30
2018-09-01T19:16:32.527Z,45.80
2018-09-01T19:19:04.620Z,46.10
2018-09-01T19:21:40.248Z,46.30
2018-09-01T19:24:14.007Z,46.80
2018-09-01T19:26:50.486Z,47.50
2018-09-01T19:29:22.139Z,46.70
2018-09-01T19:31:55.990Z,47.40
2018-09-01T19:34:27.260Z,48.00
2018-09-01T19:36:59.567Z,47.30
2018-09-01T19:39:30.397Z,47.30
2018-09-01T19:42:02.821Z,49.30
2018-09-01T19:44:34.726Z,47.80
2018-09-01T19:47:08.667Z,48.10
2018-09-01T19:49:42.178Z,48.20
2018-09-01T19:52:13.798Z,48.20
2018-09-01T19:54:45.123Z,48.30
2018-09-01T19:57:16.487Z,48.10
2018-09-01T19:59:49.047Z,48.20
2018-09-01T20:02:33.821Z,48.10
2018-09-01T20:05:08.400Z,48.40
2018-09-01T20:07:46.272Z,48.80
2018-09-01T20:10:20.379Z,49.20
2018-09-01T20:12:51.495Z,49.50
2018-09-01T20:15:27.264Z,49.70
2018-09-01T20:17:58.679Z,49.80
2018-09-01T20:20:33.044Z,50.20
2018-09-01T20:23:09.206Z,49.80
2018-09-01T20:25:43.228Z,49.90
2018-09-01T20:28:16.235Z,50.00
2018-09-01T20:30:49.338Z,49.80
2018-09-01T20:33:20.295Z,49.10
2018-09-01T20:35:59.292Z,49.60
2018-09-01T20:38:32.979Z,49.90
2018-09-01T20:41:06.738Z,50.00
2018-09-01T20:43:41.316Z,50.20
2018-09-01T20:46:13.183Z,50.20
2018-09-01T20:48:45.501Z,50.30
2018-09-01T20:51:21.375Z,50.50
2018-09-01T20:56:36.724Z,50.60
2018-09-01T20:59:08.857Z,50.40
2018-09-01T21:04:18.630Z,50.20
2018-09-01T21:06:50.850Z,50.20
2018-09-01T21:09:24.187Z,50.40
2018-09-01T21:12:01.846Z,50.30
2018-09-01T21:14:32.640Z,50.10
2018-09-01T21:17:03.720Z,50.30
2018-09-01T21:19:36.985Z,50.40
2018-09-01T21:22:15.239Z,50.30
2018-09-01T21:24:50.761Z,50.40
2018-09-01T21:27:21.838Z,50.60
2018-09-01T21:29:53.356Z,50.70
2018-09-01T21:32:27.094Z,50.60
2018-09-01T21:35:04.160Z,50.80
2018-09-01T21:37:34.675Z,50.90
2018-09-01T21:40:14.227Z,52.20
2018-09-01T21:42:45.291Z,51.50
2018-09-01T21:45:20.438Z,51.40
2018-09-01T21:47:53.444Z,51.30
2018-09-01T21:50:25.774Z,51.20
2018-09-01T21:53:01.827Z,51.00
2018-09-01T21:55:32.710Z,51.10
2018-09-01T21:58:04.423Z,51.20
2018-09-01T22:00:36.728Z,51.20
2018-09-01T22:03:09.218Z,51.40
2018-09-01T22:05:44.453Z,51.40
2018-09-01T22:08:18.508Z,50.20
2018-09-01T22:10:52.194Z,51.50
2018-09-01T22:13:22.064Z,51.60
2018-09-01T22:15:55.663Z,51.80
2018-09-01T22:18:25.683Z,53.40
2018-09-01T22:20:55.995Z,51.80
2018-09-01T22:23:26.508Z,52.10
2018-09-01T22:25:56.634Z,52.10
2018-09-01T22:28:27.142Z,52.00
2018-09-01T22:30:57.468Z,52.20
2018-09-01T22:33:28.339Z,52.20
2018-09-01T22:35:58.892Z,52.50
2018-09-01T22:38:32.190Z,52.50
2018-09-01T22:41:04.142Z,52.60
2018-09-01T22:43:36.257Z,52.50
2018-09-01T22:46:07.758Z,52.60
2018-09-01T22:48:38.480Z,52.50
2018-09-01T22:51:09.917Z,52.50
2018-09-01T22:53:41.287Z,52.60
2018-09-01T22:56:11.865Z,52.80
2018-09-01T22:58:42.727Z,53.10
2018-09-01T23:01:13.198Z,52.90
2018-09-01T23:03:44.765Z,53.00
2018-09-01T23:06:15.739Z,52.90
2018-09-01T23:08:47.149Z,52.80
2018-09-01T23:11:17.936Z,53.00
2018-09-01T23:13:48.165Z,53.10
2018-09-01T23:16:18.064Z,53.20
2018-09-01T23:18:48.568Z,53.50
2018-09-01T23:21:18.428Z,53.70
2018-09-01T23:23:48.739Z,53.50
2018-09-01T23:26:18.599Z,53.50
2018-09-01T23:28:48.303Z,53.60
2018-09-01T23:31:18.206Z,53.60
2018-09-01T23:33:48.807Z,53.70
2018-09-01T23:36:19.135Z,53.80
2018-09-01T23:38:50.692Z,54.10
2018-09-01T23:41:20.613Z,54.20
2018-09-01T23:43:51.814Z,54.90
2018-09-01T23:46:21.454Z,54.20
2018-09-01T23:48:52.414Z,55.60
2018-09-01T23:51:22.107Z,54.30
2018-09-01T23:53:51.878Z,54.50
2018-09-01T23:56:21.853Z,55.00
2018-09-01T23:58:51.592Z,54.90
